Time;durP1;ratioP1;P1;durP2;ratioP2;P2;SDS_P1;SDS_P2;PMS_P1;PMS_P2;Temp;Humidity;BMP_temperature;BMP_pressure;BME280_temperature;BME280_humidity;BME280_pressure;Samples;Min_cycle;Max_cycle;Signal;HPM_P1;HPM_P2
2022/06/14 00:02:13;;;;;;;0.45;0.20;;;;;;;21.12;37.01;102378.88;16145308;19;129650;-58
2022/06/14 00:07:34;;;;;;;1.30;0.22;;;;;;;21.13;37.53;102380.59;16149449;19;129502;-58
2022/06/14 00:12:56;;;;;;;2.80;0.45;;;;;;;21.12;37.30;102383.56;16145719;19;131918;-58
2022/06/14 00:18:22;;;;;;;1.10;0.40;;;;;;;21.11;37.49;102382.72;16149432;19;130005;-58
2022/06/14 00:23:45;;;;;;;2.65;0.40;;;;;;;21.09;37.37;102386.84;16151797;19;129406;-57
2022/06/14 00:29:06;;;;;;;2.38;0.30;;;;;;;21.07;37.65;102375.91;16148257;19;129942;-58
2022/06/14 00:34:28;;;;;;;1.05;0.30;;;;;;;21.05;37.68;102373.38;16146995;19;129415;-59
2022/06/14 00:39:50;;;;;;;1.10;0.25;;;;;;;21.06;37.96;102376.97;16142960;19;129608;-58
2022/06/14 00:45:12;;;;;;;1.90;0.90;;;;;;;21.03;37.61;102363.56;16146651;19;128859;-58
2022/06/14 00:50:43;;;;;;;0.50;0.20;;;;;;;21.02;37.69;102359.06;16149054;19;130645;-58
2022/06/14 00:56:35;;;;;;;1.50;0.43;;;;;;;21.01;38.08;102354.56;16146252;19;129429;-58
2022/06/14 01:02:06;;;;;;;3.30;0.65;;;;;;;20.99;37.91;102352.00;16149482;19;129021;-58
2022/06/14 01:07:35;;;;;;;1.60;0.38;;;;;;;20.99;38.24;102342.81;16140523;19;129129;-58
2022/06/14 01:13:02;;;;;;;2.42;0.30;;;;;;;20.98;38.17;102341.13;16129452;19;129535;-59
2022/06/14 01:18:26;;;;;;;0.70;0.20;;;;;;;20.96;38.38;102341.34;16135593;19;129287;-59
2022/06/14 01:23:48;;;;;;;1.93;0.27;;;;;;;20.96;38.32;102335.78;16145807;19;129626;-56
2022/06/14 01:29:11;;;;;;;1.05;0.30;;;;;;;20.95;38.12;102336.88;16144263;19;129536;-56
2022/06/14 01:34:38;;;;;;;1.17;0.30;;;;;;;20.94;38.34;102325.94;16144256;19;129555;-59
2022/06/14 01:40:02;;;;;;;1.40;0.40;;;;;;;20.93;38.30;102321.47;16140802;19;129675;-57
2022/06/14 01:45:43;;;;;;;0.80;0.28;;;;;;;20.93;38.01;102324.25;16137016;19;130309;-57
2022/06/14 01:57:11;;;;;;;0.55;0.28;;;;;;;20.88;38.66;102311.88;16140962;19;129743;-58
2022/06/14 02:02:51;;;;;;;0.73;0.20;;;;;;;20.88;38.57;102311.03;16145091;19;131391;-57
2022/06/14 02:08:19;;;;;;;0.40;0.20;;;;;;;20.85;38.81;102298.44;16143469;19;128850;-58
2022/06/14 02:13:46;;;;;;;1.38;0.20;;;;;;;20.85;38.37;102290.09;16140135;19;129531;-58
2022/06/14 02:19:18;;;;;;;0.60;0.20;;;;;;;20.85;38.51;102294.81;16142662;19;129269;-58
2022/06/14 02:24:48;;;;;;;1.08;0.40;;;;;;;20.84;38.48;102285.59;16141198;19;129723;-57
2022/06/14 02:30:18;;;;;;;0.90;0.45;;;;;;;20.84;38.81;102287.53;16139846;19;128999;-57
2022/06/14 02:35:57;;;;;;;0.60;0.30;;;;;;;20.83;38.73;102283.91;16135565;19;130039;-58
2022/06/14 02:41:33;;;;;;;1.80;0.28;;;;;;;20.81;38.96;102277.72;16140219;19;129230;-58
2022/06/14 02:47:12;;;;;;;1.53;0.30;;;;;;;20.80;38.51;102281.56;16138307;19;129594;-58
2022/06/14 02:52:58;;;;;;;0.80;0.30;;;;;;;20.79;38.56;102285.44;16141745;19;129801;-57
2022/06/14 02:58:25;;;;;;;0.98;0.40;;;;;;;20.77;38.99;102293.16;16140912;19;129582;-58
2022/06/14 03:03:53;;;;;;;1.40;0.40;;;;;;;20.75;38.84;102286.94;16133427;19;130380;-58
2022/06/14 03:09:19;;;;;;;0.40;0.30;;;;;;;20.75;38.95;102286.94;16137804;19;129565;-58
2022/06/14 03:14:56;;;;;;;0.93;0.20;;;;;;;20.74;38.89;102290.81;16132582;19;128936;-58
2022/06/14 03:20:32;;;;;;;0.28;0.20;;;;;;;20.74;39.12;102288.03;16141126;19;128880;-57
2022/06/14 03:25:57;;;;;;;;;;;;;;;20.70;39.33;102292.31;16140487;19;128852;-58
2022/06/14 03:31:19;;;;;;;0.85;0.22;;;;;;;20.71;39.15;102282.91;16141813;19;128893;-58
2022/06/14 03:36:41;;;;;;;0.50;0.28;;;;;;;20.70;39.16;102293.19;16134500;19;130431;-55
2022/06/14 03:42:04;;;;;;;0.20;0.20;;;;;;;20.71;39.21;102305.16;16139724;19;129036;-56
2022/06/14 03:47:30;;;;;;;1.13;0.20;;;;;;;20.69;39.32;102302.63;16132567;19;129850;-57
2022/06/14 03:53:15;;;;;;;0.47;0.20;;;;;;;20.69;39.39;102308.16;16135734;19;129588;-58
2022/06/14 03:58:58;;;;;;;1.48;0.20;;;;;;;20.68;39.37;102305.59;16134440;19;129729;-58
2022/06/14 04:04:51;;;;;;;1.10;0.30;;;;;;;20.67;39.38;102296.41;16137973;19;129779;-57
2022/06/14 04:10:35;;;;;;;1.88;0.30;;;;;;;20.67;39.34;102292.81;16139172;19;129698;-57
2022/06/14 04:16:13;;;;;;;0.47;0.20;;;;;;;20.66;39.58;102291.09;16135087;19;129048;-56
2022/06/14 04:21:47;;;;;;;0.55;0.30;;;;;;;20.66;39.27;102296.66;16137282;19;129594;-56
2022/06/14 04:27:15;;;;;;;0.50;0.20;;;;;;;20.65;39.77;102292.16;16138479;19;130652;-58
2022/06/14 04:32:44;;;;;;;0.47;0.28;;;;;;;20.64;39.50;102298.81;16131530;19;129912;-58
2022/06/14 04:38:13;;;;;;;0.45;0.20;;;;;;;20.64;39.55;102307.16;16131527;19;129211;-58
2022/06/14 04:43:41;;;;;;;1.02;0.20;;;;;;;20.65;39.49;102297.72;16136901;19;129975;-55
2022/06/14 04:49:11;;;;;;;0.70;0.20;;;;;;;20.64;39.82;102304.38;16144829;19;130141;-58
2022/06/14 04:54:41;;;;;;;0.85;0.22;;;;;;;20.63;39.71;102309.06;16146442;19;129436;-58
2022/06/14 05:00:11;;;;;;;0.25;0.10;;;;;;;20.65;39.97;102311.63;16150215;19;129646;-58
2022/06/14 05:05:42;;;;;;;0.20;0.15;;;;;;;20.64;40.01;102310.78;16150415;19;129391;-57
2022/06/14 05:11:27;;;;;;;0.63;0.20;;;;;;;20.65;40.05;102315.25;16146827;19;130248;-58
2022/06/14 05:16:57;;;;;;;0.65;0.20;;;;;;;20.65;40.05;102311.63;16146074;19;130098;-58
2022/06/14 05:22:36;;;;;;;0.85;0.20;;;;;;;20.64;39.65;102302.44;16147816;19;129719;-54
2022/06/14 05:28:11;;;;;;;1.13;0.30;;;;;;;20.66;40.23;102308.63;16145662;19;129143;-57
2022/06/14 05:33:54;;;;;;;1.95;0.30;;;;;;;20.68;40.21;102319.50;16149155;19;129290;-58
2022/06/14 05:39:31;;;;;;;1.45;0.30;;;;;;;20.70;39.95;102314.56;16147633;19;130191;-58
2022/06/14 05:44:59;;;;;;;0.80;0.20;;;;;;;20.71;39.97;102305.16;16144183;19;129224;-56
2022/06/14 05:50:26;;;;;;;1.95;0.40;;;;;;;20.73;40.11;102311.34;16142743;19;129627;-58
2022/06/14 05:55:58;;;;;;;0.50;0.40;;;;;;;20.76;39.91;102327.63;16143377;19;129330;-57
2022/06/14 06:01:41;;;;;;;2.05;0.50;;;;;;;20.78;39.82;102321.81;16143952;19;129478;-59
2022/06/14 06:07:12;;;;;;;1.33;0.22;;;;;;;20.79;40.02;102321.59;16143709;19;130065;-58
2022/06/14 06:12:40;;;;;;;0.75;0.30;;;;;;;20.80;39.95;102325.22;16128544;19;129722;-57
2022/06/14 06:18:10;;;;;;;0.30;0.28;;;;;;;20.82;40.08;102332.25;16124506;19;129294;-58
2022/06/14 06:23:45;;;;;;;0.68;0.17;;;;;;;20.84;39.85;102327.31;16133037;19;129975;-55
2022/06/14 06:29:39;;;;;;;1.10;0.40;;;;;;;20.84;40.14;102321.75;16140627;19;129743;-58
2022/06/14 06:35:03;;;;;;;0.88;0.30;;;;;;;20.85;40.20;102323.47;16140777;19;129854;-58
2022/06/14 06:40:25;;;;;;;0.65;0.20;;;;;;;20.87;40.54;102329.66;16144157;19;128912;-58
2022/06/14 06:45:51;;;;;;;1.42;0.40;;;;;;;20.88;40.42;102331.34;16140839;19;129377;-56
2022/06/14 06:51:18;;;;;;;2.30;0.30;;;;;;;20.90;40.71;102326.44;16143353;19;129209;-56
2022/06/14 06:56:48;;;;;;;1.13;0.30;;;;;;;20.90;40.09;102320.88;16138993;19;129322;-58
2022/06/14 07:02:22;;;;;;;0.32;0.20;;;;;;;20.94;40.45;102331.50;16144483;19;129066;-57
2022/06/14 07:07:50;;;;;;;1.15;0.40;;;;;;;20.94;40.38;102329.59;16139144;19;129712;-59
2022/06/14 07:13:18;;;;;;;0.82;0.25;;;;;;;20.97;40.22;102322.72;16128507;19;130818;-58
2022/06/14 07:18:52;;;;;;;2.60;0.30;;;;;;;20.98;40.32;102327.19;16128328;19;130356;-58
2022/06/14 07:24:22;;;;;;;3.50;0.32;;;;;;;20.98;40.21;102324.41;16143328;19;129098;-57
2022/06/14 07:29:51;;;;;;;1.30;0.38;;;;;;;20.99;40.43;102320.56;16138559;19;130194;-58
2022/06/14 07:35:16;;;;;;;0.38;0.10;;;;;;;20.98;40.21;102322.50;16139231;19;129152;-55
2022/06/14 07:40:45;;;;;;;1.45;0.43;;;;;;;21.01;40.39;102323.97;16135691;19;130809;-56
2022/06/14 07:46:14;;;;;;;1.85;0.40;;;;;;;21.01;39.90;102321.19;16137549;19;128925;-57
2022/06/14 07:51:44;;;;;;;1.50;0.30;;;;;;;21.01;40.09;102315.63;16141682;19;130554;-56
2022/06/14 07:57:11;;;;;;;0.57;0.20;;;;;;;21.02;39.90;102315.38;16137747;19;129763;-55
2022/06/14 08:02:39;;;;;;;0.65;0.17;;;;;;;21.00;39.77;102316.69;16137672;19;129104;-56
2022/06/14 08:08:06;;;;;;;2.00;0.50;;;;;;;21.00;39.65;102314.75;16138100;19;129242;-54
2022/06/14 08:13:34;;;;;;;2.28;0.38;;;;;;;21.01;39.83;102310.91;16139589;19;128837;-56
2022/06/14 08:19:38;;;;;;;3.45;0.50;;;;;;;20.99;39.69;102306.66;16133669;19;131401;-56
2022/06/14 08:25:16;;;;;;;1.65;0.90;;;;;;;21.00;39.69;102302.78;16141403;19;129962;-55
2022/06/14 08:30:47;;;;;;;1.77;0.50;;;;;;;20.99;39.23;102296.34;16143568;19;128941;-57
2022/06/14 08:36:16;;;;;;;1.60;0.55;;;;;;;21.00;39.45;102305.56;16142316;19;129797;-56
2022/06/14 08:42:14;;;;;;;2.30;0.50;;;;;;;20.99;39.42;102301.91;16143757;19;129744;-55
2022/06/14 08:48:02;;;;;;;0.75;0.38;;;;;;;21.00;39.44;102291.66;16143237;19;129652;-56
2022/06/14 08:53:54;;;;;;;1.20;0.50;;;;;;;20.99;39.22;102284.41;16144884;19;128852;-55
2022/06/14 08:59:25;;;;;;;1.55;0.60;;;;;;;20.97;38.96;102281.84;16145551;19;129380;-57
2022/06/14 09:05:18;;;;;;;0.98;0.40;;;;;;;20.99;39.29;102284.41;16146603;19;129228;-54
2022/06/14 09:10:58;;;;;;;2.03;0.57;;;;;;;20.98;39.27;102285.47;16149465;19;129258;-56
2022/06/14 09:16:38;;;;;;;0.90;0.30;;;;;;;20.98;39.20;102277.13;16147969;19;128916;-56
2022/06/14 09:22:24;;;;;;;1.90;0.77;;;;;;;20.99;38.75;102284.41;16141714;19;129523;-56
2022/06/14 09:28:10;;;;;;;2.55;0.60;;;;;;;20.98;38.60;102261.31;16149622;19;129393;-56
2022/06/14 09:33:59;;;;;;;1.97;0.50;;;;;;;20.98;38.41;102266.00;16147931;19;129669;-56
2022/06/14 09:39:41;;;;;;;2.58;0.73;;;;;;;20.97;38.39;102253.16;16145978;19;129788;-57
2022/06/14 09:45:13;;;;;;;2.20;0.40;;;;;;;20.97;38.50;102254.03;16145343;19;128992;-57
2022/06/14 09:50:47;;;;;;;2.92;0.65;;;;;;;20.99;38.83;102245.44;16147979;19;130202;-56
2022/06/14 09:56:12;;;;;;;1.20;0.40;;;;;;;20.97;38.97;102245.69;16145150;19;129420;-56
2022/06/14 10:02:05;;;;;;;0.40;0.35;;;;;;;20.98;38.89;102232.63;16147826;19;129418;-55
2022/06/14 10:07:47;;;;;;;1.38;0.40;;;;;;;21.00;38.31;102230.47;16146068;19;130932;-54
2022/06/14 10:13:21;;;;;;;0.63;0.30;;;;;;;20.98;38.43;102227.91;16147180;19;130079;-56
2022/06/14 10:19:04;;;;;;;6.88;0.50;;;;;;;20.98;38.37;102215.91;16141563;19;129222;-55
2022/06/14 10:24:37;;;;;;;1.63;0.45;;;;;;;20.98;38.48;102210.34;16145718;19;130609;-56
2022/06/14 10:30:07;;;;;;;2.85;0.40;;;;;;;20.98;38.18;102204.78;16145635;19;129064;-56
2022/06/14 10:35:43;;;;;;;1.00;0.40;;;;;;;20.98;38.55;102207.56;16143690;19;128894;-56
2022/06/14 10:41:38;;;;;;;2.78;0.55;;;;;;;20.99;38.22;102192.59;16143508;19;129030;-56
2022/06/14 10:47:05;;;;;;;2.28;0.60;;;;;;;20.97;38.48;102186.41;16136692;19;129429;-55
2022/06/14 10:52:41;;;;;;;1.25;0.55;;;;;;;20.98;38.27;102179.75;16143497;19;129432;-57
2022/06/14 10:58:22;;;;;;;2.75;0.52;;;;;;;20.98;38.57;102165.84;16140159;19;129271;-57
2022/06/14 11:04:13;;;;;;;2.45;0.55;;;;;;;20.97;37.84;102178.06;16138129;19;128905;-54
2022/06/14 11:09:57;;;;;;;2.38;0.60;;;;;;;20.96;37.91;102173.56;16141374;19;128927;-55
2022/06/14 11:15:26;;;;;;;1.40;0.50;;;;;;;20.97;37.59;102166.94;16141837;19;129321;-56
2022/06/14 11:21:00;;;;;;;2.10;0.40;;;;;;;20.98;38.11;102154.72;16142727;19;128958;-55
2022/06/14 11:26:28;;;;;;;1.42;0.57;;;;;;;20.96;38.11;102152.19;16143124;19;129193;-55
2022/06/14 11:32:02;;;;;;;1.15;0.40;;;;;;;20.98;38.19;102143.59;16140951;19;129451;-56
2022/06/14 11:37:47;;;;;;;4.30;0.63;;;;;;;20.98;37.93;102132.47;16136943;19;129352;-53
2022/06/14 11:43:27;;;;;;;2.90;0.45;;;;;;;20.98;38.12;102132.47;16137960;19;129412;-56
2022/06/14 11:48:55;;;;;;;1.60;0.50;;;;;;;20.97;38.01;102130.75;16139082;19;129836;-55
2022/06/14 11:54:26;;;;;;;1.40;0.50;;;;;;;20.98;37.82;102122.19;16138007;19;130635;-55
2022/06/14 12:00:26;;;;;;;0.82;0.40;;;;;;;20.99;37.90;102125.81;16164002;19;130306;-55
2022/06/14 12:06:33;;;;;;;3.78;0.60;;;;;;;21.00;37.73;102127.53;16165375;19;129434;-56
2022/06/14 12:12:07;;;;;;;2.33;0.40;;;;;;;20.99;37.85;102123.88;16168954;19;129388;-55
2022/06/14 12:17:43;;;;;;;1.48;0.50;;;;;;;21.01;37.65;102120.88;16166272;19;129461;-53
2022/06/14 12:23:25;;;;;;;1.40;0.60;;;;;;;21.00;37.83;102108.03;16165997;19;129756;-56
2022/06/14 12:28:56;;;;;;;1.60;0.40;;;;;;;21.00;37.78;102119.19;16164953;19;131282;-56
2022/06/14 12:34:20;;;;;;;1.75;0.40;;;;;;;21.00;38.13;102108.03;16166788;19;129429;-54
2022/06/14 12:39:52;;;;;;;3.33;0.43;;;;;;;21.01;37.91;102104.19;16160528;19;129425;-51
2022/06/14 12:45:19;;;;;;;1.95;0.40;;;;;;;21.02;37.73;102094.75;16165244;19;129386;-56
2022/06/14 12:50:46;;;;;;;1.17;0.40;;;;;;;21.02;37.72;102086.41;16166926;19;129979;-51
2022/06/14 12:56:14;;;;;;;1.02;0.30;;;;;;;21.02;38.07;102084.47;16163884;19;130058;-56
2022/06/14 13:01:46;;;;;;;1.98;0.65;;;;;;;21.05;38.12;102072.88;16164205;19;129301;-56
2022/06/14 13:07:27;;;;;;;2.45;0.50;;;;;;;21.03;37.68;102057.50;16153741;19;129052;-55
2022/06/14 13:13:00;;;;;;;4.05;0.60;;;;;;;21.05;37.81;102060.88;16149955;19;128990;-55
2022/06/14 13:18:57;;;;;;;1.58;0.50;;;;;;;21.05;37.93;102049.75;16147136;19;130432;-56
2022/06/14 13:24:45;;;;;;;1.75;0.30;;;;;;;21.05;38.02;102042.25;16149422;19;129414;-55
2022/06/14 13:30:26;;;;;;;1.13;0.40;;;;;;;21.07;37.64;102036.44;16145687;19;129459;-55
2022/06/14 13:35:57;;;;;;;2.78;0.70;;;;;;;21.06;37.60;102043.97;16144922;19;129690;-54
2022/06/14 13:41:25;;;;;;;2.30;0.50;;;;;;;21.06;38.00;102034.75;16145269;19;129321;-55
2022/06/14 13:47:00;;;;;;;2.67;0.55;;;;;;;21.07;37.59;102042.03;16141236;19;129331;-54
2022/06/14 13:52:25;;;;;;;2.40;0.40;;;;;;;21.06;37.31;102029.19;16147301;19;129318;-55
2022/06/14 13:57:55;;;;;;;;;;;;;;;21.03;37.45;102024.97;16143550;19;128737;-56
2022/06/14 14:03:34;;;;;;;1.73;0.52;;;;;;;21.07;37.31;102022.53;16147079;19;129314;-56
2022/06/14 14:09:14;;;;;;;0.50;0.30;;;;;;;21.06;37.23;102021.72;16146066;19;128823;-56
2022/06/14 14:14:49;;;;;;;3.17;0.75;;;;;;;21.06;37.47;102010.56;16144548;19;129021;-56
2022/06/14 14:20:35;;;;;;;1.50;0.40;;;;;;;21.08;37.32;101999.19;16141615;19;129265;-56
2022/06/14 14:26:20;;;;;;;1.27;0.50;;;;;;;21.08;37.51;101993.63;16143629;19;128856;-55
2022/06/14 14:31:42;;;;;;;2.90;0.45;;;;;;;21.07;37.17;101980.81;16141746;19;129351;-55
2022/06/14 14:37:10;;;;;;;4.28;0.50;;;;;;;21.08;36.84;101982.50;16143067;19;128947;-56
2022/06/14 14:42:33;;;;;;;4.22;0.70;;;;;;;21.08;36.81;101971.38;16144515;19;129344;-56
2022/06/14 14:48:27;;;;;;;3.70;0.68;;;;;;;21.13;37.32;101967.88;16143406;19;129010;-56
2022/06/14 14:54:01;;;;;;;2.50;0.73;;;;;;;21.12;36.80;101950.34;16142511;19;129896;-55
2022/06/14 14:59:33;;;;;;;2.10;0.50;;;;;;;21.12;37.13;101953.13;16138827;19;130549;-56
2022/06/14 15:11:06;;;;;;;2.70;0.85;;;;;;;21.12;37.18;101942.00;16141629;19;129398;-56
2022/06/14 15:16:34;;;;;;;1.63;0.60;;;;;;;21.12;37.04;101933.66;16142423;19;130052;-55
2022/06/14 15:22:00;;;;;;;1.33;0.40;;;;;;;21.12;36.86;101930.88;16140536;19;128978;-56
2022/06/14 15:28:03;;;;;;;1.45;0.40;;;;;;;21.13;36.38;101918.66;16138910;19;133887;-55
2022/06/14 15:33:34;;;;;;;0.98;0.43;;;;;;;21.15;36.37;101910.94;16127785;19;129333;-55
2022/06/14 15:39:02;;;;;;;3.50;0.90;;;;;;;21.18;36.32;101901.25;16127364;19;129483;-56
2022/06/14 15:44:31;;;;;;;5.88;0.77;;;;;;;21.22;35.66;101886.59;16126690;19;130080;-56
2022/06/14 15:49:54;;;;;;;5.93;0.90;;;;;;;21.26;35.29;101877.78;16130944;19;130273;-54
2022/06/14 15:55:22;;;;;;;4.32;1.20;;;;;;;21.27;35.30;101879.47;16129072;19;129436;-54
2022/06/14 16:00:56;;;;;;;8.13;0.95;;;;;;;21.29;35.11;101871.75;16123474;19;129822;-55
2022/06/14 16:06:31;;;;;;;5.78;0.77;;;;;;;21.30;35.05;101870.63;16126560;19;128937;-55
2022/06/14 16:12:07;;;;;;;5.60;1.00;;;;;;;21.33;35.54;101859.88;16132798;19;130309;-54
2022/06/14 16:17:45;;;;;;;10.55;1.38;;;;;;;21.33;35.73;101853.44;16136435;19;129315;-56
2022/06/14 16:23:14;;;;;;;3.78;1.10;;;;;;;21.34;35.60;101852.34;16136180;19;129301;-56
2022/06/14 16:28:54;;;;;;;4.20;0.85;;;;;;;21.37;35.79;101837.97;16136391;19;130242;-53
2022/06/14 16:34:16;;;;;;;2.20;0.73;;;;;;;21.37;35.97;101846.31;16136939;19;128954;-55
2022/06/14 16:39:48;;;;;;;4.45;1.35;;;;;;;21.40;36.13;101840.28;16132929;19;129042;-56
2022/06/14 16:45:13;;;;;;;7.00;0.90;;;;;;;21.41;36.26;101829.97;16142648;19;131248;-56
2022/06/14 16:50:47;;;;;;;1.87;0.93;;;;;;;21.44;36.14;101830.31;16148026;19;129541;-53
2022/06/14 16:56:20;;;;;;;2.63;0.75;;;;;;;21.47;35.78;101817.88;16149581;19;130584;-55
2022/06/14 17:02:19;;;;;;;4.50;0.70;;;;;;;21.48;35.59;101823.19;16148046;19;129754;-54
2022/06/14 17:08:01;;;;;;;4.35;0.98;;;;;;;21.49;35.28;101811.00;16145670;19;129238;-57
2022/06/14 17:13:45;;;;;;;3.05;1.00;;;;;;;21.53;35.30;101814.13;16148610;19;129940;-57
2022/06/14 17:19:26;;;;;;;9.77;1.08;;;;;;;21.57;35.32;101820.03;16146165;19;129766;-57
2022/06/14 17:24:50;;;;;;;4.38;1.00;;;;;;;21.57;34.83;101817.25;16145187;19;130653;-56
2022/06/14 17:30:14;;;;;;;4.38;1.25;;;;;;;21.59;35.52;101820.66;16143396;19;130029;-56
2022/06/14 17:35:57;;;;;;;4.05;0.90;;;;;;;21.60;35.61;101817.59;16147702;19;130205;-57
2022/06/14 17:41:39;;;;;;;3.20;0.80;;;;;;;21.58;35.90;101822.59;16142706;19;129544;-57
2022/06/14 17:47:09;;;;;;;3.45;0.80;;;;;;;21.55;35.47;101814.72;16141532;19;128857;-57
2022/06/14 17:52:41;;;;;;;3.05;0.90;;;;;;;21.54;35.76;101812.22;16145995;19;128920;-57
2022/06/14 17:58:16;;;;;;;7.68;0.82;;;;;;;21.51;35.87;101824.66;16144730;19;130387;-55
2022/06/14 18:04:06;;;;;;;2.17;0.80;;;;;;;21.48;35.91;101814.84;16145245;19;128937;-56
2022/06/14 18:09:57;;;;;;;4.95;1.10;;;;;;;21.46;35.94;101817.00;16139279;19;129815;-56
2022/06/14 18:15:45;;;;;;;3.10;0.88;;;;;;;21.43;35.92;101820.28;16145174;19;129382;-57
2022/06/14 18:21:13;;;;;;;8.77;1.38;;;;;;;21.42;35.55;101815.78;16130061;19;129827;-56
2022/06/14 18:27:04;;;;;;;5.50;0.73;;;;;;;21.44;35.71;101818.34;16141952;19;129761;-58
2022/06/14 18:32:30;;;;;;;3.88;0.90;;;;;;;21.43;35.93;101817.50;16141296;19;130229;-57
2022/06/14 18:37:52;;;;;;;4.68;0.80;;;;;;;21.43;35.61;101823.06;16137371;19;129477;-57
2022/06/14 18:43:14;;;;;;;4.97;1.20;;;;;;;21.45;35.80;101815.31;16136763;19;129157;-57
2022/06/14 18:48:42;;;;;;;6.38;0.60;;;;;;;21.45;35.34;101815.31;16134321;19;130121;-56
2022/06/14 18:54:08;;;;;;;2.35;0.82;;;;;;;21.45;35.68;101808.91;16138363;19;128982;-56
2022/06/14 18:59:37;;;;;;;8.50;1.00;;;;;;;21.45;35.89;101809.75;16136178;19;129132;-55
2022/06/14 19:05:53;;;;;;;2.25;0.85;;;;;;;21.46;35.99;101816.19;16128215;19;132572;-57
2022/06/14 19:11:39;;;;;;;5.57;0.80;;;;;;;21.45;35.87;101815.31;16126439;19;130434;-56
2022/06/14 19:17:20;;;;;;;1.77;0.70;;;;;;;21.44;35.62;101813.63;16130531;19;130360;-57
2022/06/14 19:22:53;;;;;;;4.28;0.70;;;;;;;21.47;36.07;101820.66;16128763;19;130533;-56
2022/06/14 19:28:20;;;;;;;8.00;1.05;;;;;;;21.42;36.56;101815.78;16118650;19;130022;-57
2022/06/14 19:33:46;;;;;;;8.10;1.17;;;;;;;21.40;36.66;101814.34;16123885;19;130686;-54
2022/06/14 19:39:14;;;;;;;5.18;1.10;;;;;;;21.41;36.52;101819.69;16127897;19;129537;-52
2022/06/14 19:44:48;;;;;;;10.98;1.45;;;;;;;21.44;36.37;101818.34;16132228;19;129407;-55
2022/06/14 19:50:28;;;;;;;7.00;1.13;;;;;;;21.47;36.58;101823.44;16140059;19;129478;-57
2022/06/14 19:55:53;;;;;;;9.00;1.00;;;;;;;21.48;36.64;101825.97;16134283;19;130758;-53
2022/06/14 20:01:20;;;;;;;8.13;1.10;;;;;;;21.49;36.63;101833.25;16131377;19;129844;-56
2022/06/14 20:06:53;;;;;;;7.05;1.05;;;;;;;21.51;36.38;101830.22;16133117;19;130684;-56
2022/06/14 20:12:20;;;;;;;31.05;2.28;;;;;;;21.50;36.91;101828.53;16127752;19;130748;-58
2022/06/14 20:17:57;;;;;;;11.70;1.58;;;;;;;21.49;36.93;101827.69;16133401;19;131348;-57
2022/06/14 20:23:22;;;;;;;11.43;1.98;;;;;;;21.47;36.67;101829.84;16150433;19;131529;-54
2022/06/14 20:28:47;;;;;;;14.97;1.80;;;;;;;21.44;36.92;101841.44;16149970;19;129899;-57
2022/06/14 20:34:09;;;;;;;15.98;1.38;;;;;;;21.42;36.73;101842.78;16143795;19;129257;-56
2022/06/14 20:39:35;;;;;;;11.43;1.00;;;;;;;21.40;36.93;101837.47;16146453;19;129615;-56
2022/06/14 20:45:03;;;;;;;3.40;1.23;;;;;;;21.37;36.79;101840.75;16142265;19;129721;-56
2022/06/14 20:50:35;;;;;;;5.35;1.00;;;;;;;21.35;36.61;101843.75;16145249;19;129485;-57
2022/06/14 20:56:12;;;;;;;3.25;0.82;;;;;;;21.34;36.97;101852.34;16140883;19;130366;-57
2022/06/14 21:01:35;;;;;;;4.57;0.93;;;;;;;21.31;36.88;101848.13;16140523;19;130595;-57
2022/06/14 21:06:57;;;;;;;7.18;1.20;;;;;;;21.31;36.72;101841.69;16142089;19;129842;-54
2022/06/14 21:12:21;;;;;;;2.65;0.80;;;;;;;21.28;37.06;101843.03;16151132;19;129486;-54
2022/06/14 21:17:44;;;;;;;4.23;0.90;;;;;;;21.28;36.94;101842.22;16145951;19;129912;-56
2022/06/14 21:23:06;;;;;;;4.88;0.80;;;;;;;21.26;36.66;101845.22;16145274;19;128962;-56
2022/06/14 21:28:30;;;;;;;3.00;0.80;;;;;;;21.25;37.19;101842.69;16147610;19;129448;-56
2022/06/14 21:34:00;;;;;;;4.05;1.23;;;;;;;21.25;37.20;101843.53;16143882;19;130249;-56
2022/06/14 21:39:28;;;;;;;4.55;1.05;;;;;;;21.22;36.94;101849.59;16143723;19;129480;-56
2022/06/14 21:44:52;;;;;;;4.43;0.95;;;;;;;21.20;37.08;101851.75;16144050;19;128816;-54
2022/06/14 21:50:14;;;;;;;1.92;0.70;;;;;;;21.19;36.73;101862.03;16144169;19;129282;-56
2022/06/14 21:55:45;;;;;;;2.28;0.70;;;;;;;21.19;37.18;101847.28;16142999;19;130805;-57
2022/06/14 22:01:12;;;;;;;4.28;1.00;;;;;;;21.17;36.97;101844.72;16140817;19;129091;-56
2022/06/14 22:06:34;;;;;;;6.80;1.00;;;;;;;21.15;36.80;101849.72;16139640;19;129193;-56
2022/06/14 22:11:56;;;;;;;2.55;0.80;;;;;;;21.15;37.28;101848.84;16144120;19;129663;-56
2022/06/14 22:17:17;;;;;;;2.83;0.70;;;;;;;21.14;37.25;101849.94;16143295;19;129579;-56
2022/06/14 22:22:40;;;;;;;2.25;0.88;;;;;;;21.13;37.20;101837.97;16139828;19;129831;-51
2022/06/14 22:28:03;;;;;;;2.45;0.70;;;;;;;21.12;37.15;101844.63;16143805;19;129000;-55
2022/06/14 22:33:25;;;;;;;4.72;0.60;;;;;;;21.12;37.11;101841.84;16143479;19;130046;-56
2022/06/14 22:38:47;;;;;;;1.38;0.52;;;;;;;21.10;37.28;101855.13;16141287;19;129362;-56
2022/06/14 22:44:14;;;;;;;1.83;0.60;;;;;;;21.10;36.89;101841.22;16140107;19;130146;-56
2022/06/14 22:49:37;;;;;;;1.05;0.50;;;;;;;21.08;37.07;101837.81;16141432;19;130859;-57
2022/06/14 22:54:59;;;;;;;1.30;0.47;;;;;;;21.09;37.32;101838.69;16142070;19;129675;-56
2022/06/14 23:00:21;;;;;;;2.17;0.55;;;;;;;21.07;37.09;101833.34;16134547;19;129231;-56
2022/06/14 23:05:43;;;;;;;2.88;0.70;;;;;;;21.07;37.28;101830.56;16136913;19;131344;-57
2022/06/14 23:11:06;;;;;;;2.10;0.68;;;;;;;21.05;36.91;101832.75;16140098;19;130329;-56
2022/06/14 23:16:28;;;;;;;1.70;0.60;;;;;;;21.04;37.25;101819.94;16140025;19;129433;-55
2022/06/14 23:21:51;;;;;;;1.35;0.50;;;;;;;21.04;37.12;101831.06;16134502;19;129374;-56
2022/06/14 23:27:12;;;;;;;1.38;0.60;;;;;;;21.03;37.18;101835.78;16141183;19;128889;-56
2022/06/14 23:32:34;;;;;;;1.08;0.50;;;;;;;21.02;37.05;101827.69;16140016;19;130208;-55
2022/06/14 23:37:56;;;;;;;1.88;0.50;;;;;;;21.02;37.58;101833.25;16138992;19;129559;-56
2022/06/14 23:43:18;;;;;;;1.77;0.50;;;;;;;21.02;37.04;101830.47;16136668;19;130201;-56
2022/06/14 23:48:41;;;;;;;1.30;0.47;;;;;;;21.02;37.45;101822.13;16140284;19;129648;-55
2022/06/14 23:54:03;;;;;;;1.17;0.60;;;;;;;20.99;37.29;101819.81;16138049;19;129787;-56
2022/06/14 23:59:25;;;;;;;0.93;0.35;;;;;;;20.99;37.04;101811.47;16134032;19;129354;-57
